Margaret Moran — WQZ6557 — position and weather

sailwx.info

Track history (hours):
 
Tides and Currents Weather Stations Pressure Air Temp Water Temp Dewpoint Dewpoint Depression Visibility Wind Speed Wind Dir Waves Ship Positions

Margaret Moran

Owner: MORAN TOWING CORPORATION, New Canaan, CT. More information available from US FCC via Universal Licensing System and Coast Guard Vessel Documentation Center.

Last reported at 2018-Apr-22 05:51 UTC. Time now 2018-Apr-22 06:27 UTC.
Position N 40°38' W 074°08'.

Length 31 m; draft 4.6 m.

Type: Tug. MMSI: 366939820.

Date/timePositionNaut miles runAvg speedWind from/ knotsBaromVisibWave heightAir tempDewpointWater temp
2018-Apr-22 05:51N 40°38' W 074°08'0 0.0
2018-Apr-22 05:27N 40°38' W 074°08'0 0.0
2018-Apr-22 04:57N 40°38' W 074°08'0 0.0
2018-Apr-22 04:30N 40°38' W 074°08'0 0.0
2018-Apr-22 03:57N 40°38' W 074°08'0 0.0
2018-Apr-22 03:30N 40°38' W 074°08'0 0.0
2018-Apr-22 03:00N 40°38' W 074°08'0 0.0
2018-Apr-22 02:16N 40°38' W 074°08'0 0.0
2018-Apr-22 00:46N 40°38' W 074°08'0 0.0
2018-Apr-22 00:25N 40°38' W 074°08'0 0.0
2018-Apr-21 23:49N 40°38' W 074°08'0 0.0
2018-Apr-21 23:28N 40°38' W 074°08'0 0.0
2018-Apr-21 22:58N 40°38' W 074°08'0 0.0
2018-Apr-21 22:30N 40°38' W 074°08'2 3.3
2018-Apr-21 22:00N 40°40' W 074°08'1 1.8
2018-Apr-21 21:30N 40°41' W 074°08'0 0.0
2018-Apr-21 21:00N 40°41' W 074°08'2 4.8
2018-Apr-21 20:30N 40°39' W 074°09'2 4.4
2018-Apr-21 20:00N 40°38' W 074°12'5 1.8
2018-Apr-21 17:11N 40°33' W 074°14'1 3.3
2018-Apr-21 16:52N 40°34' W 074°13'2 5.6
2018-Apr-21 16:29N 40°36' W 074°12'2 5.2
2018-Apr-21 16:00N 40°38' W 074°12'3 6.0
2018-Apr-21 15:30N 40°39' W 074°08'3 6.4
2018-Apr-21 15:01N 40°38' W 074°04'3 5.9
2018-Apr-21 14:28N 40°38' W 074°08'0 0.0
2018-Apr-21 13:19N 40°38' W 074°08'0 0.0
2018-Apr-21 12:55N 40°38' W 074°08'0 0.0
2018-Apr-21 12:28N 40°38' W 074°08'1 2.2
2018-Apr-21 11:59N 40°39' W 074°09'3 4.8
2018-Apr-21 11:25N 40°42' W 074°09'0 0.1
2018-Apr-21 11:00N 40°42' W 074°09'2 3.7
2018-Apr-21 10:30N 40°40' W 074°08'1 2.7
2018-Apr-21 10:00N 40°39' W 074°09'1 1.8
2018-Apr-21 09:27N 40°38' W 074°08'0 0.0
2018-Apr-21 09:00N 40°38' W 074°08'0 0.0
2018-Apr-21 08:30N 40°38' W 074°08'0 0.0
2018-Apr-21 08:00N 40°38' W 074°08'0 0.0
2018-Apr-21 07:27N 40°38' W 074°08'0 0.0
2018-Apr-21 07:00N 40°38' W 074°08'0 0.0
2018-Apr-21 06:30N 40°38' W 074°08'0 0.0
2018-Apr-21 05:58N 40°38' W 074°08'4 7.8
2018-Apr-21 05:30N 40°37' W 074°12'2 1.8
2018-Apr-21 04:20N 40°35' W 074°13'1 2.8
2018-Apr-21 03:59N 40°36' W 074°12'2 4.5
2018-Apr-21 03:29N 40°38' W 074°12'2 4.8
2018-Apr-21 03:00N 40°39' W 074°09'0 0.7
2018-Apr-21 02:28N 40°39' W 074°09'3 6.9
2018-Apr-21 01:59N 40°36' W 074°12'2 1.2
2018-Apr-21 00:37N 40°34' W 074°13'110.6
2018-Apr-21 00:30N 40°35' W 074°12'4 7.9
2018-Apr-21 00:00N 40°39' W 074°09'1 1.0
2018-Apr-20 22:59N 40°38' W 074°08'0 0.0
2018-Apr-20 22:26N 40°38' W 074°08'0 0.0
2018-Apr-20 21:56N 40°38' W 074°08'1 2.2
2018-Apr-20 21:30N 40°39' W 074°07'1 1.8
2018-Apr-20 21:00N 40°38' W 074°08'0 0.0
2018-Apr-20 20:30N 40°38' W 074°08'0 0.0
2018-Apr-20 19:54N 40°38' W 074°08'0 0.0
2018-Apr-20 19:30N 40°38' W 074°08'0 0.0
2018-Apr-20 19:00N 40°38' W 074°08'0 0.0
2018-Apr-20 18:30N 40°38' W 074°08'0 0.0
2018-Apr-20 18:00N 40°38' W 074°08'0 0.0
2018-Apr-20 17:30N 40°38' W 074°08'0 0.0
2018-Apr-20 16:45N 40°38' W 074°08'0 0.0
2018-Apr-20 16:27N 40°38' W 074°08'0 0.0
2018-Apr-20 16:00N 40°38' W 074°08'0 0.0
2018-Apr-20 15:30N 40°38' W 074°08'0 0.0
2018-Apr-20 15:00N 40°38' W 074°08'0 0.0
2018-Apr-20 14:30N 40°38' W 074°08'0 0.0
2018-Apr-20 13:59N 40°38' W 074°08'0 0.0
2018-Apr-20 13:30N 40°38' W 074°08'0 0.0
2018-Apr-20 13:00N 40°38' W 074°08'0 0.0
2018-Apr-20 12:30N 40°38' W 074°08'0 0.0
2018-Apr-20 12:00N 40°38' W 074°08'0 0.0
2018-Apr-20 11:30N 40°38' W 074°08'0 0.0
2018-Apr-20 11:00N 40°38' W 074°08'1 1.6
2018-Apr-20 10:30N 40°39' W 074°07'0 0.3
2018-Apr-20 10:00N 40°39' W 074°07'0 0.0
2018-Apr-20 09:30N 40°39' W 074°07'1 1.4
2018-Apr-20 09:00N 40°38' W 074°08'0 0.0
2018-Apr-20 08:29N 40°38' W 074°08'0 0.0
2018-Apr-20 07:59N 40°38' W 074°08'0 0.0
2018-Apr-20 07:29N 40°38' W 074°08'0 0.0
2018-Apr-20 06:59N 40°38' W 074°08'0 0.0
2018-Apr-20 06:29N 40°38' W 074°08'0 0.0
2018-Apr-20 05:59N 40°38' W 074°08'0 0.0
2018-Apr-20 05:29N 40°38' W 074°08'0 0.0
2018-Apr-20 04:59N 40°38' W 074°08'0 0.0
2018-Apr-20 04:29N 40°38' W 074°08'1 1.9
2018-Apr-20 04:00N 40°39' W 074°07'0 0.0
2018-Apr-20 03:30N 40°39' W 074°07'1 2.7
2018-Apr-20 03:00N 40°39' W 074°05'2 4.0
2018-Apr-20 02:30N 40°38' W 074°03'3 5.7
2018-Apr-20 02:00N 40°39' W 074°06'1 1.9
2018-Apr-20 01:28N 40°38' W 074°08'0 0.4
2018-Apr-20 01:00N 40°39' W 074°08'2 4.8
2018-Apr-20 00:30N 40°41' W 074°08'1 1.0
2018-Apr-20 00:00N 40°41' W 074°08'3 6.1
2018-Apr-19 23:30N 40°39' W 074°09'1 0.5
2018-Apr-19 21:57N 40°38' W 074°08'0 0.0
2018-Apr-19 19:33N 40°38' W 074°08'0 0.1
2018-Apr-19 19:27N 40°39' W 074°08'0 0.0
2018-Apr-19 16:45N 40°39' W 074°08'0 0.0
2018-Apr-19 16:21N 40°38' W 074°08'0 0.0
2018-Apr-19 15:54N 40°38' W 074°08'0 0.0
2018-Apr-19 15:21N 40°38' W 074°08'0 0.0
2018-Apr-19 15:00N 40°38' W 074°08'0 0.0
2018-Apr-19 14:30N 40°38' W 074°08'0 0.0
2018-Apr-19 14:00N 40°38' W 074°08'0 0.5
2018-Apr-19 13:30N 40°39' W 074°08'0 0.5
2018-Apr-19 13:01N 40°38' W 074°08'0 0.1
2018-Apr-19 12:31N 40°38' W 074°08'0 0.0
2018-Apr-19 12:00N 40°38' W 074°08'3 6.1
2018-Apr-19 11:31N 40°40' W 074°04'1 2.0
2018-Apr-19 11:00N 40°39' W 074°04'1 1.6
2018-Apr-19 10:30N 40°40' W 074°04'0 0.6
2018-Apr-19 10:00N 40°39' W 074°04'2 4.0
2018-Apr-19 09:30N 40°39' W 074°07'2 4.3
2018-Apr-19 09:00N 40°38' W 074°04'0 1.0
2018-Apr-19 08:31N 40°39' W 074°04'3 4.0
2018-Apr-19 07:50N 40°38' W 074°08'0 0.0
2018-Apr-19 07:29N 40°38' W 074°08'0 0.0
2018-Apr-19 06:59N 40°38' W 074°08'0 0.0
2018-Apr-19 06:26N 40°38' W 074°08'0 0.0
2018-Apr-19 05:56N 40°38' W 074°08'0 0.0
2018-Apr-19 05:26N 40°38' W 074°08'0 0.0
2018-Apr-19 04:56N 40°38' W 074°08'0 0.0
2018-Apr-19 04:29N 40°38' W 074°08'0 0.0
2018-Apr-19 03:59N 40°38' W 074°08'0 0.0
2018-Apr-19 03:29N 40°38' W 074°08'0 0.0
2018-Apr-19 02:59N 40°38' W 074°08'1 2.3
2018-Apr-19 02:30N 40°39' W 074°09'4 7.1
2018-Apr-19 02:00N 40°42' W 074°07'0 1.0
2018-Apr-19 01:30N 40°43' W 074°07'1 2.8
2018-Apr-19 01:00N 40°41' W 074°08'3 6.0
2018-Apr-19 00:30N 40°38' W 074°08'0 0.0
2018-Apr-19 00:00N 40°38' W 074°08'0 0.0
2018-Apr-18 23:30N 40°38' W 074°08'0 0.0
2018-Apr-18 23:00N 40°38' W 074°08'0 0.0
2018-Apr-18 22:30N 40°38' W 074°08'0 0.0
2018-Apr-18 22:00N 40°38' W 074°08'0 0.0
2018-Apr-18 21:27N 40°38' W 074°08'1 2.5
2018-Apr-18 21:00N 40°39' W 074°09'1 1.4
2018-Apr-18 20:30N 40°39' W 074°09'3 6.3
2018-Apr-18 20:00N 40°39' W 074°05'3 6.7
2018-Apr-18 19:30N 40°36' W 074°02'4 7.5
2018-Apr-18 19:00N 40°39' W 074°06'2 0.7
2018-Apr-18 16:51N 40°38' W 074°08'0 0.0
2018-Apr-18 16:24N 40°38' W 074°08'0 0.0
2018-Apr-18 15:57N 40°38' W 074°08'0 0.0
2018-Apr-18 14:46N 40°38' W 074°08'1 1.5
2018-Apr-18 14:07N 40°39' W 074°07'0 0.8
2018-Apr-18 13:58N 40°39' W 074°06'0 0.7
2018-Apr-18 13:25N 40°39' W 074°06'2 4.5
2018-Apr-18 12:54N 40°39' W 074°09'2 3.9
2018-Apr-18 12:30N 40°41' W 074°08'1 1.2
2018-Apr-18 11:51N 40°41' W 074°09'0 0.0
2018-Apr-18 11:27N 40°41' W 074°09'3 5.5
2018-Apr-18 10:59N 40°39' W 074°08'0 0.4
2018-Apr-18 10:26N 40°38' W 074°08'0 0.0
2018-Apr-18 09:59N 40°38' W 074°08'0 0.0
2018-Apr-18 09:29N 40°38' W 074°08'0 0.0
2018-Apr-18 08:59N 40°38' W 074°08'2 3.4
2018-Apr-18 08:29N 40°39' W 074°06'0 0.7
2018-Apr-18 07:58N 40°39' W 074°05'2 4.0
2018-Apr-18 07:28N 40°38' W 074°08'0 0.0
2018-Apr-18 06:58N 40°38' W 074°08'0 0.0
2018-Apr-18 06:29N 40°38' W 074°08'1 2.8
2018-Apr-18 05:59N 40°40' W 074°08'0 0.4
2018-Apr-18 05:26N 40°40' W 074°09'0 0.1
2018-Apr-18 04:59N 40°40' W 074°09'0 0.0
2018-Apr-18 04:29N 40°40' W 074°09'0 0.0
2018-Apr-18 03:59N 40°40' W 074°09'0 0.1
2018-Apr-18 03:29N 40°40' W 074°09'1 2.9
2018-Apr-18 03:00N 40°41' W 074°08'1 3.0
2018-Apr-18 02:30N 40°43' W 074°07'0 0.9
2018-Apr-18 02:00N 40°42' W 074°07'3 6.1
2018-Apr-18 01:30N 40°40' W 074°09'1 2.6
2018-Apr-18 01:00N 40°38' W 074°08'0 0.0
2018-Apr-18 00:30N 40°38' W 074°08'0 0.0
2018-Apr-17 23:52N 40°38' W 074°08'0 0.1
2018-Apr-17 23:30N 40°39' W 074°08'5 9.8
2018-Apr-17 22:59N 40°41' W 074°02'1 1.6
2018-Apr-17 22:30N 40°41' W 074°01'3 6.8
2018-Apr-17 22:00N 40°39' W 074°05'3 5.5
2018-Apr-17 21:30N 40°39' W 074°08'6 1.0
2018-Apr-17 15:43N 40°34' W 074°13'2 9.7
2018-Apr-17 15:29N 40°36' W 074°12'2 3.7
2018-Apr-17 15:00N 40°38' W 074°12'0 0.0
2018-Apr-17 14:30N 40°38' W 074°12'0 0.1
2018-Apr-17 14:00N 40°38' W 074°12'2 3.2
2018-Apr-17 13:30N 40°39' W 074°10'3 6.9
2018-Apr-17 13:00N 40°39' W 074°06'2 4.0
2018-Apr-17 12:30N 40°38' W 074°04'0 0.2
2018-Apr-17 12:00N 40°38' W 074°04'3 3.9
2018-Apr-17 11:11N 40°38' W 074°08'0 0.0
2018-Apr-17 10:44N 40°38' W 074°08'0 0.0
2018-Apr-17 10:11N 40°38' W 074°08'0 0.0
2018-Apr-17 09:59N 40°38' W 074°08'0 0.0
2018-Apr-17 09:13N 40°38' W 074°08'1 6.5
2018-Apr-17 09:00N 40°39' W 074°10'6 8.1
2018-Apr-17 08:16N 40°33' W 074°13'0 1.0
2018-Apr-17 07:54N 40°34' W 074°13'2 5.5
2018-Apr-17 07:30N 40°36' W 074°12'2 3.9
2018-Apr-17 06:57N 40°38' W 074°12'0 0.0
2018-Apr-17 06:30N 40°38' W 074°12'3 6.9
2018-Apr-17 06:00N 40°39' W 074°08'0 0.1
2018-Apr-17 05:29N 40°38' W 074°08'0 0.0
2018-Apr-17 04:59N 40°38' W 074°08'0 0.0
2018-Apr-17 04:29N 40°38' W 074°08'0 0.0
2018-Apr-17 03:59N 40°38' W 074°08'0 0.0
2018-Apr-17 03:29N 40°38' W 074°08'0 0.0
2018-Apr-17 02:59N 40°38' W 074°08'0 0.0
2018-Apr-17 02:29N 40°38' W 074°08'0 0.0
2018-Apr-17 01:59N 40°38' W 074°08'0 0.0
2018-Apr-17 01:29N 40°38' W 074°08'0 0.0
2018-Apr-17 00:59N 40°38' W 074°08'0 0.0
2018-Apr-17 00:29N 40°38' W 074°08'0 0.0
2018-Apr-16 23:59N 40°38' W 074°08'0 0.0
2018-Apr-16 23:26N 40°38' W 074°08'0 0.2
2018-Apr-16 23:01N 40°39' W 074°08'2 3.4
2018-Apr-16 22:29N 40°40' W 074°08'1 1.8
2018-Apr-16 22:00N 40°41' W 074°09'0 0.1
2018-Apr-16 21:29N 40°41' W 074°09'0 0.0
2018-Apr-16 21:00N 40°41' W 074°09'0 0.0
2018-Apr-16 20:30N 40°41' W 074°09'0 0.0
2018-Apr-16 20:00N 40°41' W 074°09'0 0.0
2018-Apr-16 19:30N 40°41' W 074°09'0 0.3
2018-Apr-16 19:00N 40°41' W 074°09'1 1.1
2018-Apr-16 18:30N 40°41' W 074°09'2 4.3
2018-Apr-16 18:00N 40°39' W 074°08'4 7.9
2018-Apr-16 17:30N 40°38' W 074°03'3 6.7
2018-Apr-16 17:00N 40°39' W 074°08'0 0.1
2018-Apr-16 15:35N 40°38' W 074°08'0 4.9
2018-Apr-16 15:30N 40°39' W 074°07'5 9.9
2018-Apr-16 15:00N 40°41' W 074°02'1 1.6
2018-Apr-16 14:31N 40°41' W 074°01'3 4.9
2018-Apr-16 14:00N 40°40' W 074°03'1 1.5
2018-Apr-16 13:30N 40°39' W 074°03'3 6.8
2018-Apr-16 13:00N 40°38' W 074°08'1 1.3
2018-Apr-16 12:30N 40°38' W 074°09'4 3.2
2018-Apr-16 11:08N 40°35' W 074°12'0 1.8
2018-Apr-16 10:58N 40°36' W 074°12'4 7.9
2018-Apr-16 10:30N 40°39' W 074°10'1 1.7
2018-Apr-16 10:00N 40°39' W 074°09'2 3.2
2018-Apr-16 09:30N 40°41' W 074°09'0 0.3
2018-Apr-16 09:00N 40°41' W 074°09'0 0.7
2018-Apr-16 08:30N 40°40' W 074°08'0 0.0
2018-Apr-16 07:59N 40°40' W 074°08'0 0.0
2018-Apr-16 07:30N 40°40' W 074°08'1 1.8
2018-Apr-16 07:00N 40°40' W 074°09'1 2.9
2018-Apr-16 06:30N 40°39' W 074°07'0 0.0
2018-Apr-16 06:00N 40°39' W 074°07'1 1.2
2018-Apr-16 05:29N 40°38' W 074°08'0 0.0
2018-Apr-16 04:59N 40°38' W 074°08'1 1.8
2018-Apr-16 04:30N 40°39' W 074°07'2 4.8
2018-Apr-16 04:01N 40°40' W 074°04'0 0.8
2018-Apr-16 03:31N 40°40' W 074°04'0 0.1
2018-Apr-16 03:00N 40°40' W 074°04'0 0.0
2018-Apr-16 02:30N 40°40' W 074°04'0 0.0
2018-Apr-16 02:01N 40°40' W 074°04'1 2.6
2018-Apr-16 01:30N 40°39' W 074°05'1 1.2
2018-Apr-16 01:00N 40°39' W 074°06'0 0.0
2018-Apr-16 00:30N 40°39' W 074°06'1 1.8
2018-Apr-16 00:00N 40°39' W 074°05'1 2.5
2018-Apr-15 23:30N 40°39' W 074°03'1 1.8
2018-Apr-15 23:01N 40°40' W 074°04'0 0.4
2018-Apr-15 22:30N 40°40' W 074°04'0 0.5
2018-Apr-15 22:01N 40°40' W 074°04'2 4.5
2018-Apr-15 21:31N 40°39' W 074°07'2 3.4
2018-Apr-15 21:00N 40°40' W 074°09'2 3.7
2018-Apr-15 20:30N 40°41' W 074°08'0 1.0
2018-Apr-15 20:00N 40°42' W 074°09'3 6.3
2018-Apr-15 19:29N 40°39' W 074°09'1 1.6
2018-Apr-15 19:00N 40°38' W 074°08'0 0.0
2018-Apr-15 18:30N 40°38' W 074°08'0 0.0
2018-Apr-15 17:58N 40°38' W 074°08'0 0.0
2018-Apr-15 17:30N 40°38' W 074°08'0 0.0
2018-Apr-15 17:00N 40°38' W 074°08'0 0.9
2018-Apr-15 16:30N 40°39' W 074°08'4 7.2
2018-Apr-15 15:59N 40°36' W 074°12'4 3.4
2018-Apr-15 14:49N 40°33' W 074°15'3 8.6
2018-Apr-15 14:29N 40°35' W 074°13'0 0.1
2018-Apr-15 13:39N 40°35' W 074°13'0 1.3
2018-Apr-15 13:28N 40°35' W 074°13'3 4.3
2018-Apr-15 12:47N 40°33' W 074°15'0 0.1
2018-Apr-15 10:36N 40°33' W 074°15'2 9.3
2018-Apr-15 10:24N 40°34' W 074°13'2 3.4
2018-Apr-15 09:58N 40°35' W 074°13'0 0.0
2018-Apr-15 09:30N 40°35' W 074°13'4 7.7
2018-Apr-15 09:00N 40°39' W 074°11'2 4.0
2018-Apr-15 08:26N 40°38' W 074°08'0 0.0
2018-Apr-15 07:56N 40°38' W 074°08'0 0.0
2018-Apr-15 07:29N 40°38' W 074°08'0 0.0
2018-Apr-15 06:59N 40°38' W 074°08'0 0.0
2018-Apr-15 06:31N 40°38' W 074°08'1 1.4
2018-Apr-15 05:55N 40°39' W 074°07'0 0.0
2018-Apr-15 05:28N 40°39' W 074°07'1 1.7
2018-Apr-15 04:59N 40°38' W 074°08'0 0.0
2018-Apr-15 04:26N 40°38' W 074°08'0 0.0
2018-Apr-15 03:59N 40°38' W 074°08'0 0.0
2018-Apr-15 03:29N 40°38' W 074°08'0 0.0
2018-Apr-15 02:59N 40°38' W 074°08'0 0.0
2018-Apr-15 02:29N 40°38' W 074°08'0 0.0
2018-Apr-15 01:59N 40°38' W 074°08'0 0.0
2018-Apr-15 01:29N 40°38' W 074°08'0 0.0
2018-Apr-15 00:59N 40°38' W 074°08'1 2.1
2018-Apr-15 00:30N 40°39' W 074°07'0 0.3
2018-Apr-15 00:00N 40°39' W 074°07'1 2.1
2018-Apr-14 23:30N 40°38' W 074°08'0 0.0
2018-Apr-14 23:00N 40°38' W 074°08'0 0.0
2018-Apr-14 22:30N 40°38' W 074°08'0 0.0
2018-Apr-14 22:00N 40°38' W 074°08'0 0.0
2018-Apr-14 21:30N 40°38' W 074°08'0 0.0
2018-Apr-14 21:00N 40°38' W 074°08'0 0.0
2018-Apr-14 20:30N 40°38' W 074°08'0 0.6
2018-Apr-14 20:00N 40°39' W 074°08'3 6.5
2018-Apr-14 19:30N 40°39' W 074°04'1 1.6
2018-Apr-14 19:00N 40°38' W 074°04'2 3.3
2018-Apr-14 18:30N 40°39' W 074°06'2 1.0
2018-Apr-14 16:50N 40°38' W 074°08'0 0.0
2018-Apr-14 16:29N 40°38' W 074°08'3 7.1
2018-Apr-14 16:00N 40°38' W 074°12'6 6.1
2018-Apr-14 15:06N 40°32' W 074°15'2 4.9
2018-Apr-14 14:38N 40°34' W 074°13'1 6.6
2018-Apr-14 14:29N 40°35' W 074°12'0 0.4
2018-Apr-14 13:27N 40°35' W 074°12'4 8.2
2018-Apr-14 13:00N 40°39' W 074°11'2 3.9
2018-Apr-14 12:25N 40°38' W 074°08'0 0.0
2018-Apr-14 11:58N 40°38' W 074°08'0 0.0
2018-Apr-14 11:25N 40°38' W 074°08'0 0.0
2018-Apr-14 10:55N 40°38' W 074°08'0 0.0
2018-Apr-14 10:28N 40°38' W 074°08'0 1.1
2018-Apr-14 10:00N 40°39' W 074°08'1 2.4
2018-Apr-14 09:30N 40°40' W 074°09'0 0.2
2018-Apr-14 09:01N 40°40' W 074°09'1 2.0
2018-Apr-14 08:30N 40°39' W 074°09'1 1.9
2018-Apr-14 07:59N 40°38' W 074°08'0 0.0
2018-Apr-14 07:29N 40°38' W 074°08'0 0.0
2018-Apr-14 06:59N 40°38' W 074°08'0 0.0
2018-Apr-14 06:29N 40°38' W 074°08'0 0.0
2018-Apr-14 05:59N 40°38' W 074°08'0 0.0
2018-Apr-14 05:26N 40°38' W 074°08'0 0.0
2018-Apr-14 05:00N 40°38' W 074°08'3 6.5
2018-Apr-14 04:29N 40°42' W 074°09'0 0.5
2018-Apr-14 04:00N 40°42' W 074°09'1 1.9
2018-Apr-14 03:30N 40°41' W 074°08'2 4.7
2018-Apr-14 03:00N 40°39' W 074°08'0 0.1
2018-Apr-14 02:30N 40°38' W 074°08'0 0.0
2018-Apr-14 02:01N 40°38' W 074°08'0 0.0
2018-Apr-14 01:30N 40°38' W 074°08'2 3.2
2018-Apr-14 01:00N 40°39' W 074°10'4 8.2
2018-Apr-14 00:29N 40°35' W 074°13'0 0.0
2018-Apr-14 00:00N 40°35' W 074°13'0 0.1
2018-Apr-13 23:27N 40°35' W 074°12'2 3.3
2018-Apr-13 22:58N 40°37' W 074°12'2 4.9
2018-Apr-13 22:30N 40°39' W 074°11'3 6.4
2018-Apr-13 22:00N 40°39' W 074°07'3 5.7
2018-Apr-13 21:30N 40°38' W 074°03'2 4.5
2018-Apr-13 21:00N 40°39' W 074°06'1 2.6
2018-Apr-13 20:28N 40°38' W 074°08'0 0.0
2018-Apr-13 19:58N 40°38' W 074°08'0 0.0
2018-Apr-13 19:28N 40°38' W 074°08'0 0.0
2018-Apr-13 18:58N 40°38' W 074°08'0 0.0
2018-Apr-13 18:10N 40°38' W 074°08'0 0.0
2018-Apr-13 17:55N 40°38' W 074°08'1 2.5
2018-Apr-13 17:30N 40°39' W 074°07'0 0.0
2018-Apr-13 16:15N 40°39' W 074°07'0 0.0
2018-Apr-13 14:45N 40°39' W 074°07'0 0.0
2018-Apr-13 14:21N 40°39' W 074°07'0 0.0
2018-Apr-13 14:00N 40°39' W 074°07'1 1.0
2018-Apr-13 13:01N 40°38' W 074°08'0 0.0
2018-Apr-13 12:46N 40°38' W 074°08'0 0.0
2018-Apr-13 12:19N 40°38' W 074°08'0 0.0
2018-Apr-13 11:58N 40°38' W 074°08'0 0.0
2018-Apr-13 11:19N 40°38' W 074°08'0 0.0
2018-Apr-13 10:58N 40°38' W 074°08'0 0.0
2018-Apr-13 10:28N 40°38' W 074°08'0 0.0
2018-Apr-13 09:52N 40°38' W 074°08'0 0.0
2018-Apr-13 09:22N 40°38' W 074°08'0 0.0
2018-Apr-13 08:58N 40°38' W 074°08'0 0.0
2018-Apr-13 08:28N 40°38' W 074°08'0 0.0
2018-Apr-13 07:58N 40°38' W 074°08'0 0.0
2018-Apr-13 07:28N 40°38' W 074°08'0 0.0
2018-Apr-13 06:58N 40°38' W 074°08'0 0.0
2018-Apr-13 06:28N 40°38' W 074°08'0 0.0
2018-Apr-13 05:58N 40°38' W 074°08'0 0.0
2018-Apr-13 05:28N 40°38' W 074°08'0 0.0
2018-Apr-13 04:58N 40°38' W 074°08'0 0.0
2018-Apr-13 04:28N 40°38' W 074°08'0 0.0
2018-Apr-13 03:58N 40°38' W 074°08'0 0.0
2018-Apr-13 03:25N 40°38' W 074°08'0 0.0
2018-Apr-13 02:58N 40°38' W 074°08'0 0.0
2018-Apr-13 02:25N 40°38' W 074°08'0 0.0
2018-Apr-13 01:55N 40°38' W 074°08'0 0.0
2018-Apr-13 01:25N 40°38' W 074°08'0 0.0
2018-Apr-13 00:49N 40°38' W 074°08'0 0.0
2018-Apr-13 00:19N 40°38' W 074°08'0 0.0
2018-Apr-12 23:49N 40°38' W 074°08'0 0.0
2018-Apr-12 23:25N 40°38' W 074°08'0 0.0
2018-Apr-12 22:55N 40°38' W 074°08'0 0.0
2018-Apr-12 22:22N 40°38' W 074°08'0 0.0
2018-Apr-12 21:58N 40°38' W 074°08'0 0.0
2018-Apr-12 21:28N 40°38' W 074°08'0 0.0
2018-Apr-12 20:58N 40°38' W 074°08'0 0.0
2018-Apr-12 20:01N 40°38' W 074°08'0 0.0
2018-Apr-12 19:55N 40°38' W 074°08'0 0.0
2018-Apr-12 19:19N 40°38' W 074°08'0 0.0
2018-Apr-12 18:49N 40°38' W 074°08'0 0.0
2018-Apr-12 18:28N 40°38' W 074°08'0 0.0
2018-Apr-12 17:58N 40°38' W 074°08'0 0.0
2018-Apr-12 17:25N 40°38' W 074°08'0 0.0
2018-Apr-12 16:58N 40°38' W 074°08'0 0.0
2018-Apr-12 16:19N 40°38' W 074°08'0 0.0
2018-Apr-12 15:01N 40°38' W 074°08'0 0.0
2018-Apr-12 14:52N 40°38' W 074°08'0 0.0
2018-Apr-12 14:28N 40°38' W 074°08'0 0.0
2018-Apr-12 13:49N 40°38' W 074°08'0 0.0
2018-Apr-12 13:25N 40°38' W 074°08'0 0.0
2018-Apr-12 12:46N 40°38' W 074°08'0 0.0
2018-Apr-12 12:28N 40°38' W 074°08'0 0.0
2018-Apr-12 11:40N 40°38' W 074°08'0 0.0
2018-Apr-12 11:31N 40°38' W 074°08'0 0.0
2018-Apr-12 10:55N 40°38' W 074°08'0 0.0
2018-Apr-12 10:28N 40°38' W 074°08'0 0.0
2018-Apr-12 09:34N 40°38' W 074°08'0 0.0
2018-Apr-12 09:22N 40°38' W 074°08'0 0.0
2018-Apr-12 08:58N 40°38' W 074°08'0 0.0
2018-Apr-12 08:28N 40°38' W 074°08'0 0.0
2018-Apr-12 07:49N 40°38' W 074°08'0 0.0
2018-Apr-12 07:28N 40°38' W 074°08'0 0.0
2018-Apr-12 06:58N 40°38' W 074°08'0 0.0
2018-Apr-12 06:28N 40°38' W 074°08'0 0.0
2018-Apr-12 06:00N 40°38' W 074°08'  
Track history (hours):
 
Tides and Currents Weather Stations Pressure Air Temp Water Temp Dewpoint Dewpoint Depression Visibility Wind Speed Wind Dir Waves Ship Positions

Margaret Moran

Owner: MORAN TOWING CORPORATION, New Canaan, CT. More information available from US FCC via Universal Licensing System and Coast Guard Vessel Documentation Center.

Last reported at 2018-Apr-22 05:51 UTC. Time now 2018-Apr-22 06:27 UTC.
Position N 40°38' W 074°08'.

Length 31 m; draft 4.6 m.

Type: Tug. MMSI: 366939820.

Date/timePositionNaut miles runAvg speedWind from/ knotsBaromVisibWave heightAir tempDewpointWater temp
2018-Apr-22 05:51N 40°38' W 074°08'0 0.0
2018-Apr-22 05:27N 40°38' W 074°08'0 0.0
2018-Apr-22 04:57N 40°38' W 074°08'0 0.0
2018-Apr-22 04:30N 40°38' W 074°08'0 0.0
2018-Apr-22 03:57N 40°38' W 074°08'0 0.0
2018-Apr-22 03:30N 40°38' W 074°08'0 0.0
2018-Apr-22 03:00N 40°38' W 074°08'0 0.0
2018-Apr-22 02:16N 40°38' W 074°08'0 0.0
2018-Apr-22 00:46N 40°38' W 074°08'0 0.0
2018-Apr-22 00:25N 40°38' W 074°08'0 0.0
2018-Apr-21 23:49N 40°38' W 074°08'0 0.0
2018-Apr-21 23:28N 40°38' W 074°08'0 0.0
2018-Apr-21 22:58N 40°38' W 074°08'0 0.0
2018-Apr-21 22:30N 40°38' W 074°08'2 3.3
2018-Apr-21 22:00N 40°40' W 074°08'1 1.8
2018-Apr-21 21:30N 40°41' W 074°08'0 0.0
2018-Apr-21 21:00N 40°41' W 074°08'2 4.8
2018-Apr-21 20:30N 40°39' W 074°09'2 4.4
2018-Apr-21 20:00N 40°38' W 074°12'5 1.8
2018-Apr-21 17:11N 40°33' W 074°14'1 3.3
2018-Apr-21 16:52N 40°34' W 074°13'2 5.6
2018-Apr-21 16:29N 40°36' W 074°12'2 5.2
2018-Apr-21 16:00N 40°38' W 074°12'3 6.0
2018-Apr-21 15:30N 40°39' W 074°08'3 6.4
2018-Apr-21 15:01N 40°38' W 074°04'3 5.9
2018-Apr-21 14:28N 40°38' W 074°08'0 0.0
2018-Apr-21 13:19N 40°38' W 074°08'0 0.0
2018-Apr-21 12:55N 40°38' W 074°08'0 0.0
2018-Apr-21 12:28N 40°38' W 074°08'1 2.2
2018-Apr-21 11:59N 40°39' W 074°09'3 4.8
2018-Apr-21 11:25N 40°42' W 074°09'0 0.1
2018-Apr-21 11:00N 40°42' W 074°09'2 3.7
2018-Apr-21 10:30N 40°40' W 074°08'1 2.7
2018-Apr-21 10:00N 40°39' W 074°09'1 1.8
2018-Apr-21 09:27N 40°38' W 074°08'0 0.0
2018-Apr-21 09:00N 40°38' W 074°08'0 0.0
2018-Apr-21 08:30N 40°38' W 074°08'0 0.0
2018-Apr-21 08:00N 40°38' W 074°08'0 0.0
2018-Apr-21 07:27N 40°38' W 074°08'0 0.0
2018-Apr-21 07:00N 40°38' W 074°08'0 0.0
2018-Apr-21 06:30N 40°38' W 074°08'0 0.0
2018-Apr-21 05:58N 40°38' W 074°08'4 7.8
2018-Apr-21 05:30N 40°37' W 074°12'2 1.8
2018-Apr-21 04:20N 40°35' W 074°13'1 2.8
2018-Apr-21 03:59N 40°36' W 074°12'2 4.5
2018-Apr-21 03:29N 40°38' W 074°12'2 4.8
2018-Apr-21 03:00N 40°39' W 074°09'0 0.7
2018-Apr-21 02:28N 40°39' W 074°09'3 6.9
2018-Apr-21 01:59N 40°36' W 074°12'2 1.2
2018-Apr-21 00:37N 40°34' W 074°13'110.6
2018-Apr-21 00:30N 40°35' W 074°12'4 7.9
2018-Apr-21 00:00N 40°39' W 074°09'1 1.0
2018-Apr-20 22:59N 40°38' W 074°08'0 0.0
2018-Apr-20 22:26N 40°38' W 074°08'0 0.0
2018-Apr-20 21:56N 40°38' W 074°08'1 2.2
2018-Apr-20 21:30N 40°39' W 074°07'1 1.8
2018-Apr-20 21:00N 40°38' W 074°08'0 0.0
2018-Apr-20 20:30N 40°38' W 074°08'0 0.0
2018-Apr-20 19:54N 40°38' W 074°08'0 0.0
2018-Apr-20 19:30N 40°38' W 074°08'0 0.0
2018-Apr-20 19:00N 40°38' W 074°08'0 0.0
2018-Apr-20 18:30N 40°38' W 074°08'0 0.0
2018-Apr-20 18:00N 40°38' W 074°08'0 0.0
2018-Apr-20 17:30N 40°38' W 074°08'0 0.0
2018-Apr-20 16:45N 40°38' W 074°08'0 0.0
2018-Apr-20 16:27N 40°38' W 074°08'0 0.0
2018-Apr-20 16:00N 40°38' W 074°08'0 0.0
2018-Apr-20 15:30N 40°38' W 074°08'0 0.0
2018-Apr-20 15:00N 40°38' W 074°08'0 0.0
2018-Apr-20 14:30N 40°38' W 074°08'0 0.0
2018-Apr-20 13:59N 40°38' W 074°08'0 0.0
2018-Apr-20 13:30N 40°38' W 074°08'0 0.0
2018-Apr-20 13:00N 40°38' W 074°08'0 0.0
2018-Apr-20 12:30N 40°38' W 074°08'0 0.0
2018-Apr-20 12:00N 40°38' W 074°08'0 0.0
2018-Apr-20 11:30N 40°38' W 074°08'0 0.0
2018-Apr-20 11:00N 40°38' W 074°08'1 1.6
2018-Apr-20 10:30N 40°39' W 074°07'0 0.3
2018-Apr-20 10:00N 40°39' W 074°07'0 0.0
2018-Apr-20 09:30N 40°39' W 074°07'1 1.4
2018-Apr-20 09:00N 40°38' W 074°08'0 0.0
2018-Apr-20 08:29N 40°38' W 074°08'0 0.0
2018-Apr-20 07:59N 40°38' W 074°08'0 0.0
2018-Apr-20 07:29N 40°38' W 074°08'0 0.0
2018-Apr-20 06:59N 40°38' W 074°08'0 0.0
2018-Apr-20 06:29N 40°38' W 074°08'0 0.0
2018-Apr-20 05:59N 40°38' W 074°08'0 0.0
2018-Apr-20 05:29N 40°38' W 074°08'0 0.0
2018-Apr-20 04:59N 40°38' W 074°08'0 0.0
2018-Apr-20 04:29N 40°38' W 074°08'1 1.9
2018-Apr-20 04:00N 40°39' W 074°07'0 0.0
2018-Apr-20 03:30N 40°39' W 074°07'1 2.7
2018-Apr-20 03:00N 40°39' W 074°05'2 4.0
2018-Apr-20 02:30N 40°38' W 074°03'3 5.7
2018-Apr-20 02:00N 40°39' W 074°06'1 1.9
2018-Apr-20 01:28N 40°38' W 074°08'0 0.4
2018-Apr-20 01:00N 40°39' W 074°08'2 4.8
2018-Apr-20 00:30N 40°41' W 074°08'1 1.0
2018-Apr-20 00:00N 40°41' W 074°08'3 6.1
2018-Apr-19 23:30N 40°39' W 074°09'1 0.5
2018-Apr-19 21:57N 40°38' W 074°08'0 0.0
2018-Apr-19 19:33N 40°38' W 074°08'0 0.1
2018-Apr-19 19:27N 40°39' W 074°08'0 0.0
2018-Apr-19 16:45N 40°39' W 074°08'0 0.0
2018-Apr-19 16:21N 40°38' W 074°08'0 0.0
2018-Apr-19 15:54N 40°38' W 074°08'0 0.0
2018-Apr-19 15:21N 40°38' W 074°08'0 0.0
2018-Apr-19 15:00N 40°38' W 074°08'0 0.0
2018-Apr-19 14:30N 40°38' W 074°08'0 0.0
2018-Apr-19 14:00N 40°38' W 074°08'0 0.5
2018-Apr-19 13:30N 40°39' W 074°08'0 0.5
2018-Apr-19 13:01N 40°38' W 074°08'0 0.1
2018-Apr-19 12:31N 40°38' W 074°08'0 0.0
2018-Apr-19 12:00N 40°38' W 074°08'3 6.1
2018-Apr-19 11:31N 40°40' W 074°04'1 2.0
2018-Apr-19 11:00N 40°39' W 074°04'1 1.6
2018-Apr-19 10:30N 40°40' W 074°04'0 0.6
2018-Apr-19 10:00N 40°39' W 074°04'2 4.0
2018-Apr-19 09:30N 40°39' W 074°07'2 4.3
2018-Apr-19 09:00N 40°38' W 074°04'0 1.0
2018-Apr-19 08:31N 40°39' W 074°04'3 4.0
2018-Apr-19 07:50N 40°38' W 074°08'0 0.0
2018-Apr-19 07:29N 40°38' W 074°08'0 0.0
2018-Apr-19 06:59N 40°38' W 074°08'0 0.0
2018-Apr-19 06:26N 40°38' W 074°08'0 0.0
2018-Apr-19 05:56N 40°38' W 074°08'0 0.0
2018-Apr-19 05:26N 40°38' W 074°08'0 0.0
2018-Apr-19 04:56N 40°38' W 074°08'0 0.0
2018-Apr-19 04:29N 40°38' W 074°08'0 0.0
2018-Apr-19 03:59N 40°38' W 074°08'0 0.0
2018-Apr-19 03:29N 40°38' W 074°08'0 0.0
2018-Apr-19 02:59N 40°38' W 074°08'1 2.3
2018-Apr-19 02:30N 40°39' W 074°09'4 7.1
2018-Apr-19 02:00N 40°42' W 074°07'0 1.0
2018-Apr-19 01:30N 40°43' W 074°07'1 2.8
2018-Apr-19 01:00N 40°41' W 074°08'3 6.0
2018-Apr-19 00:30N 40°38' W 074°08'0 0.0
2018-Apr-19 00:00N 40°38' W 074°08'0 0.0
2018-Apr-18 23:30N 40°38' W 074°08'0 0.0
2018-Apr-18 23:00N 40°38' W 074°08'0 0.0
2018-Apr-18 22:30N 40°38' W 074°08'0 0.0
2018-Apr-18 22:00N 40°38' W 074°08'0 0.0
2018-Apr-18 21:27N 40°38' W 074°08'1 2.5
2018-Apr-18 21:00N 40°39' W 074°09'1 1.4
2018-Apr-18 20:30N 40°39' W 074°09'3 6.3
2018-Apr-18 20:00N 40°39' W 074°05'3 6.7
2018-Apr-18 19:30N 40°36' W 074°02'4 7.5
2018-Apr-18 19:00N 40°39' W 074°06'2 0.7
2018-Apr-18 16:51N 40°38' W 074°08'0 0.0
2018-Apr-18 16:24N 40°38' W 074°08'0 0.0
2018-Apr-18 15:57N 40°38' W 074°08'0 0.0
2018-Apr-18 14:46N 40°38' W 074°08'1 1.5
2018-Apr-18 14:07N 40°39' W 074°07'0 0.8
2018-Apr-18 13:58N 40°39' W 074°06'0 0.7
2018-Apr-18 13:25N 40°39' W 074°06'2 4.5
2018-Apr-18 12:54N 40°39' W 074°09'2 3.9
2018-Apr-18 12:30N 40°41' W 074°08'1 1.2
2018-Apr-18 11:51N 40°41' W 074°09'0 0.0
2018-Apr-18 11:27N 40°41' W 074°09'3 5.5
2018-Apr-18 10:59N 40°39' W 074°08'0 0.4
2018-Apr-18 10:26N 40°38' W 074°08'0 0.0
2018-Apr-18 09:59N 40°38' W 074°08'0 0.0
2018-Apr-18 09:29N 40°38' W 074°08'0 0.0
2018-Apr-18 08:59N 40°38' W 074°08'2 3.4
2018-Apr-18 08:29N 40°39' W 074°06'0 0.7
2018-Apr-18 07:58N 40°39' W 074°05'2 4.0
2018-Apr-18 07:28N 40°38' W 074°08'0 0.0
2018-Apr-18 06:58N 40°38' W 074°08'0 0.0
2018-Apr-18 06:29N 40°38' W 074°08'1 2.8
2018-Apr-18 05:59N 40°40' W 074°08'0 0.4
2018-Apr-18 05:26N 40°40' W 074°09'0 0.1
2018-Apr-18 04:59N 40°40' W 074°09'0 0.0
2018-Apr-18 04:29N 40°40' W 074°09'0 0.0
2018-Apr-18 03:59N 40°40' W 074°09'0 0.1
2018-Apr-18 03:29N 40°40' W 074°09'1 2.9
2018-Apr-18 03:00N 40°41' W 074°08'1 3.0
2018-Apr-18 02:30N 40°43' W 074°07'0 0.9
2018-Apr-18 02:00N 40°42' W 074°07'3 6.1
2018-Apr-18 01:30N 40°40' W 074°09'1 2.6
2018-Apr-18 01:00N 40°38' W 074°08'0 0.0
2018-Apr-18 00:30N 40°38' W 074°08'0 0.0
2018-Apr-17 23:52N 40°38' W 074°08'0 0.1
2018-Apr-17 23:30N 40°39' W 074°08'5 9.8
2018-Apr-17 22:59N 40°41' W 074°02'1 1.6
2018-Apr-17 22:30N 40°41' W 074°01'3 6.8
2018-Apr-17 22:00N 40°39' W 074°05'3 5.5
2018-Apr-17 21:30N 40°39' W 074°08'6 1.0
2018-Apr-17 15:43N 40°34' W 074°13'2 9.7
2018-Apr-17 15:29N 40°36' W 074°12'2 3.7
2018-Apr-17 15:00N 40°38' W 074°12'0 0.0
2018-Apr-17 14:30N 40°38' W 074°12'0 0.1
2018-Apr-17 14:00N 40°38' W 074°12'2 3.2
2018-Apr-17 13:30N 40°39' W 074°10'3 6.9
2018-Apr-17 13:00N 40°39' W 074°06'2 4.0
2018-Apr-17 12:30N 40°38' W 074°04'0 0.2
2018-Apr-17 12:00N 40°38' W 074°04'3 3.9
2018-Apr-17 11:11N 40°38' W 074°08'0 0.0
2018-Apr-17 10:44N 40°38' W 074°08'0 0.0
2018-Apr-17 10:11N 40°38' W 074°08'0 0.0
2018-Apr-17 09:59N 40°38' W 074°08'0 0.0
2018-Apr-17 09:13N 40°38' W 074°08'1 6.5
2018-Apr-17 09:00N 40°39' W 074°10'6 8.1
2018-Apr-17 08:16N 40°33' W 074°13'0 1.0
2018-Apr-17 07:54N 40°34' W 074°13'2 5.5
2018-Apr-17 07:30N 40°36' W 074°12'2 3.9
2018-Apr-17 06:57N 40°38' W 074°12'0 0.0
2018-Apr-17 06:30N 40°38' W 074°12'3 6.9
2018-Apr-17 06:00N 40°39' W 074°08'0 0.1
2018-Apr-17 05:29N 40°38' W 074°08'0 0.0
2018-Apr-17 04:59N 40°38' W 074°08'0 0.0
2018-Apr-17 04:29N 40°38' W 074°08'0 0.0
2018-Apr-17 03:59N 40°38' W 074°08'0 0.0
2018-Apr-17 03:29N 40°38' W 074°08'0 0.0
2018-Apr-17 02:59N 40°38' W 074°08'0 0.0
2018-Apr-17 02:29N 40°38' W 074°08'0 0.0
2018-Apr-17 01:59N 40°38' W 074°08'0 0.0
2018-Apr-17 01:29N 40°38' W 074°08'0 0.0
2018-Apr-17 00:59N 40°38' W 074°08'0 0.0
2018-Apr-17 00:29N 40°38' W 074°08'0 0.0
2018-Apr-16 23:59N 40°38' W 074°08'0 0.0
2018-Apr-16 23:26N 40°38' W 074°08'0 0.2
2018-Apr-16 23:01N 40°39' W 074°08'2 3.4
2018-Apr-16 22:29N 40°40' W 074°08'1 1.8
2018-Apr-16 22:00N 40°41' W 074°09'0 0.1
2018-Apr-16 21:29N 40°41' W 074°09'0 0.0
2018-Apr-16 21:00N 40°41' W 074°09'0 0.0
2018-Apr-16 20:30N 40°41' W 074°09'0 0.0
2018-Apr-16 20:00N 40°41' W 074°09'0 0.0
2018-Apr-16 19:30N 40°41' W 074°09'0 0.3
2018-Apr-16 19:00N 40°41' W 074°09'1 1.1
2018-Apr-16 18:30N 40°41' W 074°09'2 4.3
2018-Apr-16 18:00N 40°39' W 074°08'4 7.9
2018-Apr-16 17:30N 40°38' W 074°03'3 6.7
2018-Apr-16 17:00N 40°39' W 074°08'0 0.1
2018-Apr-16 15:35N 40°38' W 074°08'0 4.9
2018-Apr-16 15:30N 40°39' W 074°07'5 9.9
2018-Apr-16 15:00N 40°41' W 074°02'1 1.6
2018-Apr-16 14:31N 40°41' W 074°01'3 4.9
2018-Apr-16 14:00N 40°40' W 074°03'1 1.5
2018-Apr-16 13:30N 40°39' W 074°03'3 6.8
2018-Apr-16 13:00N 40°38' W 074°08'1 1.3
2018-Apr-16 12:30N 40°38' W 074°09'4 3.2
2018-Apr-16 11:08N 40°35' W 074°12'0 1.8
2018-Apr-16 10:58N 40°36' W 074°12'4 7.9
2018-Apr-16 10:30N 40°39' W 074°10'1 1.7
2018-Apr-16 10:00N 40°39' W 074°09'2 3.2
2018-Apr-16 09:30N 40°41' W 074°09'0 0.3
2018-Apr-16 09:00N 40°41' W 074°09'0 0.7
2018-Apr-16 08:30N 40°40' W 074°08'0 0.0
2018-Apr-16 07:59N 40°40' W 074°08'0 0.0
2018-Apr-16 07:30N 40°40' W 074°08'1 1.8
2018-Apr-16 07:00N 40°40' W 074°09'1 2.9
2018-Apr-16 06:30N 40°39' W 074°07'0 0.0
2018-Apr-16 06:00N 40°39' W 074°07'1 1.2
2018-Apr-16 05:29N 40°38' W 074°08'0 0.0
2018-Apr-16 04:59N 40°38' W 074°08'1 1.8
2018-Apr-16 04:30N 40°39' W 074°07'2 4.8
2018-Apr-16 04:01N 40°40' W 074°04'0 0.8
2018-Apr-16 03:31N 40°40' W 074°04'0 0.1
2018-Apr-16 03:00N 40°40' W 074°04'0 0.0
2018-Apr-16 02:30N 40°40' W 074°04'0 0.0
2018-Apr-16 02:01N 40°40' W 074°04'1 2.6
2018-Apr-16 01:30N 40°39' W 074°05'1 1.2
2018-Apr-16 01:00N 40°39' W 074°06'0 0.0
2018-Apr-16 00:30N 40°39' W 074°06'1 1.8
2018-Apr-16 00:00N 40°39' W 074°05'1 2.5
2018-Apr-15 23:30N 40°39' W 074°03'1 1.8
2018-Apr-15 23:01N 40°40' W 074°04'0 0.4
2018-Apr-15 22:30N 40°40' W 074°04'0 0.5
2018-Apr-15 22:01N 40°40' W 074°04'2 4.5
2018-Apr-15 21:31N 40°39' W 074°07'2 3.4
2018-Apr-15 21:00N 40°40' W 074°09'2 3.7
2018-Apr-15 20:30N 40°41' W 074°08'0 1.0
2018-Apr-15 20:00N 40°42' W 074°09'3 6.3
2018-Apr-15 19:29N 40°39' W 074°09'1 1.6
2018-Apr-15 19:00N 40°38' W 074°08'0 0.0
2018-Apr-15 18:30N 40°38' W 074°08'0 0.0
2018-Apr-15 17:58N 40°38' W 074°08'0 0.0
2018-Apr-15 17:30N 40°38' W 074°08'0 0.0
2018-Apr-15 17:00N 40°38' W 074°08'0 0.9
2018-Apr-15 16:30N 40°39' W 074°08'4 7.2
2018-Apr-15 15:59N 40°36' W 074°12'4 3.4
2018-Apr-15 14:49N 40°33' W 074°15'3 8.6
2018-Apr-15 14:29N 40°35' W 074°13'0 0.1
2018-Apr-15 13:39N 40°35' W 074°13'0 1.3
2018-Apr-15 13:28N 40°35' W 074°13'3 4.3
2018-Apr-15 12:47N 40°33' W 074°15'0 0.1
2018-Apr-15 10:36N 40°33' W 074°15'2 9.3
2018-Apr-15 10:24N 40°34' W 074°13'2 3.4
2018-Apr-15 09:58N 40°35' W 074°13'0 0.0
2018-Apr-15 09:30N 40°35' W 074°13'4 7.7
2018-Apr-15 09:00N 40°39' W 074°11'2 4.0
2018-Apr-15 08:26N 40°38' W 074°08'0 0.0
2018-Apr-15 07:56N 40°38' W 074°08'0 0.0
2018-Apr-15 07:29N 40°38' W 074°08'0 0.0
2018-Apr-15 06:59N 40°38' W 074°08'0 0.0
2018-Apr-15 06:31N 40°38' W 074°08'1 1.4
2018-Apr-15 05:55N 40°39' W 074°07'0 0.0
2018-Apr-15 05:28N 40°39' W 074°07'1 1.7
2018-Apr-15 04:59N 40°38' W 074°08'0 0.0
2018-Apr-15 04:26N 40°38' W 074°08'0 0.0
2018-Apr-15 03:59N 40°38' W 074°08'0 0.0
2018-Apr-15 03:29N 40°38' W 074°08'0 0.0
2018-Apr-15 02:59N 40°38' W 074°08'0 0.0
2018-Apr-15 02:29N 40°38' W 074°08'0 0.0
2018-Apr-15 01:59N 40°38' W 074°08'0 0.0
2018-Apr-15 01:29N 40°38' W 074°08'0 0.0
2018-Apr-15 00:59N 40°38' W 074°08'1 2.1
2018-Apr-15 00:30N 40°39' W 074°07'0 0.3
2018-Apr-15 00:00N 40°39' W 074°07'1 2.1
2018-Apr-14 23:30N 40°38' W 074°08'0 0.0
2018-Apr-14 23:00N 40°38' W 074°08'0 0.0
2018-Apr-14 22:30N 40°38' W 074°08'0 0.0
2018-Apr-14 22:00N 40°38' W 074°08'0 0.0
2018-Apr-14 21:30N 40°38' W 074°08'0 0.0
2018-Apr-14 21:00N 40°38' W 074°08'0 0.0
2018-Apr-14 20:30N 40°38' W 074°08'0 0.6
2018-Apr-14 20:00N 40°39' W 074°08'3 6.5
2018-Apr-14 19:30N 40°39' W 074°04'1 1.6
2018-Apr-14 19:00N 40°38' W 074°04'2 3.3
2018-Apr-14 18:30N 40°39' W 074°06'2 1.0
2018-Apr-14 16:50N 40°38' W 074°08'0 0.0
2018-Apr-14 16:29N 40°38' W 074°08'3 7.1
2018-Apr-14 16:00N 40°38' W 074°12'6 6.1
2018-Apr-14 15:06N 40°32' W 074°15'2 4.9
2018-Apr-14 14:38N 40°34' W 074°13'1 6.6
2018-Apr-14 14:29N 40°35' W 074°12'0 0.4
2018-Apr-14 13:27N 40°35' W 074°12'4 8.2
2018-Apr-14 13:00N 40°39' W 074°11'2 3.9
2018-Apr-14 12:25N 40°38' W 074°08'0 0.0
2018-Apr-14 11:58N 40°38' W 074°08'0 0.0
2018-Apr-14 11:25N 40°38' W 074°08'0 0.0
2018-Apr-14 10:55N 40°38' W 074°08'0 0.0
2018-Apr-14 10:28N 40°38' W 074°08'0 1.1
2018-Apr-14 10:00N 40°39' W 074°08'1 2.4
2018-Apr-14 09:30N 40°40' W 074°09'0 0.2
2018-Apr-14 09:01N 40°40' W 074°09'1 2.0
2018-Apr-14 08:30N 40°39' W 074°09'1 1.9
2018-Apr-14 07:59N 40°38' W 074°08'0 0.0
2018-Apr-14 07:29N 40°38' W 074°08'0 0.0
2018-Apr-14 06:59N 40°38' W 074°08'0 0.0
2018-Apr-14 06:29N 40°38' W 074°08'0 0.0
2018-Apr-14 05:59N 40°38' W 074°08'0 0.0
2018-Apr-14 05:26N 40°38' W 074°08'0 0.0
2018-Apr-14 05:00N 40°38' W 074°08'3 6.5
2018-Apr-14 04:29N 40°42' W 074°09'0 0.5
2018-Apr-14 04:00N 40°42' W 074°09'1 1.9
2018-Apr-14 03:30N 40°41' W 074°08'2 4.7
2018-Apr-14 03:00N 40°39' W 074°08'0 0.1
2018-Apr-14 02:30N 40°38' W 074°08'0 0.0
2018-Apr-14 02:01N 40°38' W 074°08'0 0.0
2018-Apr-14 01:30N 40°38' W 074°08'2 3.2
2018-Apr-14 01:00N 40°39' W 074°10'4 8.2
2018-Apr-14 00:29N 40°35' W 074°13'0 0.0
2018-Apr-14 00:00N 40°35' W 074°13'0 0.1
2018-Apr-13 23:27N 40°35' W 074°12'2 3.3
2018-Apr-13 22:58N 40°37' W 074°12'2 4.9
2018-Apr-13 22:30N 40°39' W 074°11'3 6.4
2018-Apr-13 22:00N 40°39' W 074°07'3 5.7
2018-Apr-13 21:30N 40°38' W 074°03'2 4.5
2018-Apr-13 21:00N 40°39' W 074°06'1 2.6
2018-Apr-13 20:28N 40°38' W 074°08'0 0.0
2018-Apr-13 19:58N 40°38' W 074°08'0 0.0
2018-Apr-13 19:28N 40°38' W 074°08'0 0.0
2018-Apr-13 18:58N 40°38' W 074°08'0 0.0
2018-Apr-13 18:10N 40°38' W 074°08'0 0.0
2018-Apr-13 17:55N 40°38' W 074°08'1 2.5
2018-Apr-13 17:30N 40°39' W 074°07'0 0.0
2018-Apr-13 16:15N 40°39' W 074°07'0 0.0
2018-Apr-13 14:45N 40°39' W 074°07'0 0.0
2018-Apr-13 14:21N 40°39' W 074°07'0 0.0
2018-Apr-13 14:00N 40°39' W 074°07'1 1.0
2018-Apr-13 13:01N 40°38' W 074°08'0 0.0
2018-Apr-13 12:46N 40°38' W 074°08'0 0.0
2018-Apr-13 12:19N 40°38' W 074°08'0 0.0
2018-Apr-13 11:58N 40°38' W 074°08'0 0.0
2018-Apr-13 11:19N 40°38' W 074°08'0 0.0
2018-Apr-13 10:58N 40°38' W 074°08'0 0.0
2018-Apr-13 10:28N 40°38' W 074°08'0 0.0
2018-Apr-13 09:52N 40°38' W 074°08'0 0.0
2018-Apr-13 09:22N 40°38' W 074°08'0 0.0
2018-Apr-13 08:58N 40°38' W 074°08'0 0.0
2018-Apr-13 08:28N 40°38' W 074°08'0 0.0
2018-Apr-13 07:58N 40°38' W 074°08'0 0.0
2018-Apr-13 07:28N 40°38' W 074°08'0 0.0
2018-Apr-13 06:58N 40°38' W 074°08'0 0.0
2018-Apr-13 06:28N 40°38' W 074°08'0 0.0
2018-Apr-13 05:58N 40°38' W 074°08'0 0.0
2018-Apr-13 05:28N 40°38' W 074°08'0 0.0
2018-Apr-13 04:58N 40°38' W 074°08'0 0.0
2018-Apr-13 04:28N 40°38' W 074°08'0 0.0
2018-Apr-13 03:58N 40°38' W 074°08'0 0.0
2018-Apr-13 03:25N 40°38' W 074°08'0 0.0
2018-Apr-13 02:58N 40°38' W 074°08'0 0.0
2018-Apr-13 02:25N 40°38' W 074°08'0 0.0
2018-Apr-13 01:55N 40°38' W 074°08'0 0.0
2018-Apr-13 01:25N 40°38' W 074°08'0 0.0
2018-Apr-13 00:49N 40°38' W 074°08'0 0.0
2018-Apr-13 00:19N 40°38' W 074°08'0 0.0
2018-Apr-12 23:49N 40°38' W 074°08'0 0.0
2018-Apr-12 23:25N 40°38' W 074°08'0 0.0
2018-Apr-12 22:55N 40°38' W 074°08'0 0.0
2018-Apr-12 22:22N 40°38' W 074°08'0 0.0
2018-Apr-12 21:58N 40°38' W 074°08'0 0.0
2018-Apr-12 21:28N 40°38' W 074°08'0 0.0
2018-Apr-12 20:58N 40°38' W 074°08'0 0.0
2018-Apr-12 20:01N 40°38' W 074°08'0 0.0
2018-Apr-12 19:55N 40°38' W 074°08'0 0.0
2018-Apr-12 19:19N 40°38' W 074°08'0 0.0
2018-Apr-12 18:49N 40°38' W 074°08'0 0.0
2018-Apr-12 18:28N 40°38' W 074°08'0 0.0
2018-Apr-12 17:58N 40°38' W 074°08'0 0.0
2018-Apr-12 17:25N 40°38' W 074°08'0 0.0
2018-Apr-12 16:58N 40°38' W 074°08'0 0.0
2018-Apr-12 16:19N 40°38' W 074°08'0 0.0
2018-Apr-12 15:01N 40°38' W 074°08'0 0.0
2018-Apr-12 14:52N 40°38' W 074°08'0 0.0
2018-Apr-12 14:28N 40°38' W 074°08'0 0.0
2018-Apr-12 13:49N 40°38' W 074°08'0 0.0
2018-Apr-12 13:25N 40°38' W 074°08'0 0.0
2018-Apr-12 12:46N 40°38' W 074°08'0 0.0
2018-Apr-12 12:28N 40°38' W 074°08'0 0.0
2018-Apr-12 11:40N 40°38' W 074°08'0 0.0
2018-Apr-12 11:31N 40°38' W 074°08'0 0.0
2018-Apr-12 10:55N 40°38' W 074°08'0 0.0
2018-Apr-12 10:28N 40°38' W 074°08'0 0.0
2018-Apr-12 09:34N 40°38' W 074°08'0 0.0
2018-Apr-12 09:22N 40°38' W 074°08'0 0.0
2018-Apr-12 08:58N 40°38' W 074°08'0 0.0
2018-Apr-12 08:28N 40°38' W 074°08'0 0.0
2018-Apr-12 07:49N 40°38' W 074°08'0 0.0
2018-Apr-12 07:28N 40°38' W 074°08'0 0.0
2018-Apr-12 06:58N 40°38' W 074°08'0 0.0
2018-Apr-12 06:28N 40°38' W 074°08'0 0.0
2018-Apr-12 06:00N 40°38' W 074°08'  

Dump ship's entire track history